sensor_id;sensor_type;location;lat;lon;timestamp;temperature;humidity
44190;DHT22;29856;52.144;5.430;2023-11-19T00:00:33;14.10;99.90
44190;DHT22;29856;52.144;5.430;2023-11-19T00:02:58;14.10;99.90
44190;DHT22;29856;52.144;5.430;2023-11-19T00:05:24;14.10;99.90
44190;DHT22;29856;52.144;5.430;2023-11-19T00:07:49;14.10;99.90
44190;DHT22;29856;52.144;5.430;2023-11-19T00:10:16;14.10;99.90
44190;DHT22;29856;52.144;5.430;2023-11-19T00:12:43;14.10;99.90
44190;DHT22;29856;52.144;5.430;2023-11-19T00:15:08;14.00;99.90
44190;DHT22;29856;52.144;5.430;2023-11-19T00:17:34;14.10;99.90
44190;DHT22;29856;52.144;5.430;2023-11-19T00:19:59;14.10;99.90
44190;DHT22;29856;52.144;5.430;2023-11-19T00:22:25;14.10;99.90
44190;DHT22;29856;52.144;5.430;2023-11-19T00:24:50;14.10;99.90
44190;DHT22;29856;52.144;5.430;2023-11-19T00:27:16;14.00;99.90
44190;DHT22;29856;52.144;5.430;2023-11-19T00:29:41;14.10;99.90
44190;DHT22;29856;52.144;5.430;2023-11-19T00:32:07;14.10;99.90
44190;DHT22;29856;52.144;5.430;2023-11-19T00:34:32;14.10;99.90
44190;DHT22;29856;52.144;5.430;2023-11-19T00:36:57;14.10;99.90
44190;DHT22;29856;52.144;5.430;2023-11-19T00:39:23;14.10;99.90
44190;DHT22;29856;52.144;5.430;2023-11-19T00:41:48;14.10;99.90
44190;DHT22;29856;52.144;5.430;2023-11-19T00:44:14;14.10;99.90
44190;DHT22;29856;52.144;5.430;2023-11-19T00:46:39;14.10;99.90
44190;DHT22;29856;52.144;5.430;2023-11-19T00:49:05;14.10;99.90
44190;DHT22;29856;52.144;5.430;2023-11-19T00:51:30;14.10;99.90
44190;DHT22;29856;52.144;5.430;2023-11-19T00:53:56;14.00;99.90
44190;DHT22;29856;52.144;5.430;2023-11-19T00:56:21;14.10;99.90
44190;DHT22;29856;52.144;5.430;2023-11-19T00:58:47;14.10;99.90
44190;DHT22;29856;52.144;5.430;2023-11-19T01:01:12;14.00;99.90
44190;DHT22;29856;52.144;5.430;2023-11-19T01:03:37;14.10;99.90
44190;DHT22;29856;52.144;5.430;2023-11-19T01:06:03;14.00;99.90
44190;DHT22;29856;52.144;5.430;2023-11-19T01:08:29;14.00;99.90
44190;DHT22;29856;52.144;5.430;2023-11-19T01:10:54;14.00;99.90
44190;DHT22;29856;52.144;5.430;2023-11-19T01:13:20;14.00;99.90
44190;DHT22;29856;52.144;5.430;2023-11-19T01:15:45;14.00;99.90
44190;DHT22;29856;52.144;5.430;2023-11-19T01:18:11;14.00;99.90
44190;DHT22;29856;52.144;5.430;2023-11-19T01:20:36;14.00;99.90
44190;DHT22;29856;52.144;5.430;2023-11-19T01:23:02;14.00;99.90
44190;DHT22;29856;52.144;5.430;2023-11-19T01:25:27;14.00;99.90
44190;DHT22;29856;52.144;5.430;2023-11-19T01:27:53;14.00;99.90
44190;DHT22;29856;52.144;5.430;2023-11-19T01:30:18;14.00;99.90
44190;DHT22;29856;52.144;5.430;2023-11-19T01:32:44;14.10;99.90
44190;DHT22;29856;52.144;5.430;2023-11-19T01:35:09;14.00;99.90
44190;DHT22;29856;52.144;5.430;2023-11-19T01:37:34;14.00;99.90
44190;DHT22;29856;52.144;5.430;2023-11-19T01:40:00;14.00;99.90
44190;DHT22;29856;52.144;5.430;2023-11-19T01:42:25;14.00;99.90
44190;DHT22;29856;52.144;5.430;2023-11-19T01:44:58;14.00;99.90
44190;DHT22;29856;52.144;5.430;2023-11-19T01:47:24;14.00;99.90
44190;DHT22;29856;52.144;5.430;2023-11-19T01:49:51;14.10;99.90
44190;DHT22;29856;52.144;5.430;2023-11-19T01:52:16;14.10;99.90
44190;DHT22;29856;52.144;5.430;2023-11-19T01:54:42;14.00;99.90
44190;DHT22;29856;52.144;5.430;2023-11-19T01:57:08;14.00;99.90
44190;DHT22;29856;52.144;5.430;2023-11-19T01:59:34;14.00;99.90
44190;DHT22;29856;52.144;5.430;2023-11-19T02:02:00;14.00;99.90
44190;DHT22;29856;52.144;5.430;2023-11-19T02:04:26;14.00;99.90
44190;DHT22;29856;52.144;5.430;2023-11-19T02:06:54;14.00;99.90
44190;DHT22;29856;52.144;5.430;2023-11-19T02:09:21;14.00;99.90
44190;DHT22;29856;52.144;5.430;2023-11-19T02:11:47;13.90;99.90
44190;DHT22;29856;52.144;5.430;2023-11-19T02:14:12;13.90;99.90
44190;DHT22;29856;52.144;5.430;2023-11-19T02:16:38;13.90;99.90
44190;DHT22;29856;52.144;5.430;2023-11-19T02:19:03;13.90;99.90
44190;DHT22;29856;52.144;5.430;2023-11-19T02:21:28;13.80;99.90
44190;DHT22;29856;52.144;5.430;2023-11-19T02:23:54;13.80;99.90
44190;DHT22;29856;52.144;5.430;2023-11-19T02:26:31;13.80;99.90
44190;DHT22;29856;52.144;5.430;2023-11-19T02:28:57;13.70;99.90
44190;DHT22;29856;52.144;5.430;2023-11-19T02:31:23;13.70;99.90
44190;DHT22;29856;52.144;5.430;2023-11-19T02:33:49;13.70;99.90
44190;DHT22;29856;52.144;5.430;2023-11-19T02:36:14;13.60;99.90
44190;DHT22;29856;52.144;5.430;2023-11-19T02:38:39;13.60;99.90
44190;DHT22;29856;52.144;5.430;2023-11-19T02:41:06;13.60;99.90
44190;DHT22;29856;52.144;5.430;2023-11-19T02:43:36;13.60;99.90
44190;DHT22;29856;52.144;5.430;2023-11-19T02:46:03;13.50;99.90
44190;DHT22;29856;52.144;5.430;2023-11-19T02:48:29;13.50;99.90
44190;DHT22;29856;52.144;5.430;2023-11-19T02:50:54;13.50;99.90
44190;DHT22;29856;52.144;5.430;2023-11-19T02:53:20;13.40;99.90
44190;DHT22;29856;52.144;5.430;2023-11-19T02:55:45;13.40;99.90
44190;DHT22;29856;52.144;5.430;2023-11-19T02:58:11;13.40;99.90
44190;DHT22;29856;52.144;5.430;2023-11-19T03:00:39;13.40;99.90
44190;DHT22;29856;52.144;5.430;2023-11-19T03:03:05;13.40;99.90
44190;DHT22;29856;52.144;5.430;2023-11-19T03:05:31;13.40;99.90
44190;DHT22;29856;52.144;5.430;2023-11-19T03:07:56;13.40;99.90
44190;DHT22;29856;52.144;5.430;2023-11-19T03:10:22;13.30;99.90
44190;DHT22;29856;52.144;5.430;2023-11-19T03:12:47;13.30;99.90
44190;DHT22;29856;52.144;5.430;2023-11-19T03:15:13;13.30;99.90
44190;DHT22;29856;52.144;5.430;2023-11-19T03:17:39;13.30;99.90
44190;DHT22;29856;52.144;5.430;2023-11-19T03:20:09;13.20;99.90
44190;DHT22;29856;52.144;5.430;2023-11-19T03:22:36;13.20;99.90
44190;DHT22;29856;52.144;5.430;2023-11-19T03:25:02;13.20;99.90
44190;DHT22;29856;52.144;5.430;2023-11-19T03:27:27;13.20;99.90
44190;DHT22;29856;52.144;5.430;2023-11-19T03:29:52;13.10;99.90
44190;DHT22;29856;52.144;5.430;2023-11-19T03:32:18;13.10;99.90
44190;DHT22;29856;52.144;5.430;2023-11-19T03:34:43;13.10;99.90
44190;DHT22;29856;52.144;5.430;2023-11-19T03:37:09;13.00;99.90
44190;DHT22;29856;52.144;5.430;2023-11-19T03:39:34;13.00;99.90
44190;DHT22;29856;52.144;5.430;2023-11-19T03:42:00;13.00;99.90
44190;DHT22;29856;52.144;5.430;2023-11-19T03:44:26;12.90;99.90
44190;DHT22;29856;52.144;5.430;2023-11-19T03:46:52;12.90;99.90
44190;DHT22;29856;52.144;5.430;2023-11-19T03:49:18;12.90;99.90
44190;DHT22;29856;52.144;5.430;2023-11-19T03:51:43;12.90;99.90
44190;DHT22;29856;52.144;5.430;2023-11-19T03:54:08;12.90;99.90
44190;DHT22;29856;52.144;5.430;2023-11-19T03:56:34;12.80;99.90
44190;DHT22;29856;52.144;5.430;2023-11-19T03:58:59;12.80;99.90
44190;DHT22;29856;52.144;5.430;2023-11-19T04:01:25;12.80;99.90
44190;DHT22;29856;52.144;5.430;2023-11-19T04:03:50;12.70;99.90
44190;DHT22;29856;52.144;5.430;2023-11-19T04:06:16;12.70;99.90
44190;DHT22;29856;52.144;5.430;2023-11-19T04:08:41;12.70;99.90
44190;DHT22;29856;52.144;5.430;2023-11-19T04:11:07;12.70;99.90
44190;DHT22;29856;52.144;5.430;2023-11-19T04:13:32;12.70;99.90
44190;DHT22;29856;52.144;5.430;2023-11-19T04:15:58;12.60;99.90
44190;DHT22;29856;52.144;5.430;2023-11-19T04:18:23;12.60;99.90
44190;DHT22;29856;52.144;5.430;2023-11-19T04:20:49;12.60;99.90
44190;DHT22;29856;52.144;5.430;2023-11-19T04:23:14;12.60;99.90
44190;DHT22;29856;52.144;5.430;2023-11-19T04:25:39;12.60;99.90
44190;DHT22;29856;52.144;5.430;2023-11-19T04:28:05;12.50;99.90
44190;DHT22;29856;52.144;5.430;2023-11-19T04:30:30;12.50;99.90
44190;DHT22;29856;52.144;5.430;2023-11-19T04:32:56;12.50;99.90
44190;DHT22;29856;52.144;5.430;2023-11-19T04:35:21;12.50;99.90
44190;DHT22;29856;52.144;5.430;2023-11-19T04:37:47;12.50;99.90
44190;DHT22;29856;52.144;5.430;2023-11-19T04:40:12;12.50;99.90
44190;DHT22;29856;52.144;5.430;2023-11-19T04:42:38;12.50;99.90
44190;DHT22;29856;52.144;5.430;2023-11-19T04:45:04;12.50;99.90
44190;DHT22;29856;52.144;5.430;2023-11-19T04:47:29;12.50;99.90
44190;DHT22;29856;52.144;5.430;2023-11-19T04:49:55;12.40;99.90
44190;DHT22;29856;52.144;5.430;2023-11-19T04:52:20;12.40;99.90
44190;DHT22;29856;52.144;5.430;2023-11-19T04:54:46;12.40;99.90
44190;DHT22;29856;52.144;5.430;2023-11-19T04:57:11;12.40;99.90
44190;DHT22;29856;52.144;5.430;2023-11-19T04:59:37;12.50;99.90
44190;DHT22;29856;52.144;5.430;2023-11-19T05:02:02;12.40;99.90
44190;DHT22;29856;52.144;5.430;2023-11-19T05:04:28;12.40;99.90
44190;DHT22;29856;52.144;5.430;2023-11-19T05:06:53;12.30;99.90
44190;DHT22;29856;52.144;5.430;2023-11-19T05:09:19;12.30;99.90
44190;DHT22;29856;52.144;5.430;2023-11-19T05:11:44;12.30;99.90
44190;DHT22;29856;52.144;5.430;2023-11-19T05:14:10;12.30;99.90
44190;DHT22;29856;52.144;5.430;2023-11-19T05:16:35;12.30;99.90
44190;DHT22;29856;52.144;5.430;2023-11-19T05:19:01;12.30;99.90
44190;DHT22;29856;52.144;5.430;2023-11-19T05:21:26;12.30;99.90
44190;DHT22;29856;52.144;5.430;2023-11-19T05:23:51;12.30;99.90
44190;DHT22;29856;52.144;5.430;2023-11-19T05:26:18;12.30;99.90
44190;DHT22;29856;52.144;5.430;2023-11-19T05:28:44;12.20;99.90
44190;DHT22;29856;52.144;5.430;2023-11-19T05:31:09;12.20;99.90
44190;DHT22;29856;52.144;5.430;2023-11-19T05:33:35;12.20;99.90
44190;DHT22;29856;52.144;5.430;2023-11-19T05:36:00;12.20;99.90
44190;DHT22;29856;52.144;5.430;2023-11-19T05:38:26;12.20;99.90
44190;DHT22;29856;52.144;5.430;2023-11-19T05:40:51;12.20;99.90
44190;DHT22;29856;52.144;5.430;2023-11-19T05:43:16;12.20;99.90
44190;DHT22;29856;52.144;5.430;2023-11-19T05:45:42;12.20;99.90
44190;DHT22;29856;52.144;5.430;2023-11-19T05:48:08;12.20;99.90
44190;DHT22;29856;52.144;5.430;2023-11-19T05:50:33;12.10;99.90
44190;DHT22;29856;52.144;5.430;2023-11-19T05:52:59;12.10;99.90
44190;DHT22;29856;52.144;5.430;2023-11-19T05:55:24;12.10;99.90
44190;DHT22;29856;52.144;5.430;2023-11-19T05:57:50;12.10;99.90
44190;DHT22;29856;52.144;5.430;2023-11-19T06:00:15;12.10;99.90
44190;DHT22;29856;52.144;5.430;2023-11-19T06:02:41;12.10;99.90
44190;DHT22;29856;52.144;5.430;2023-11-19T06:05:06;12.10;99.90
44190;DHT22;29856;52.144;5.430;2023-11-19T06:07:33;12.10;99.90
44190;DHT22;29856;52.144;5.430;2023-11-19T06:09:58;12.10;99.90
44190;DHT22;29856;52.144;5.430;2023-11-19T06:12:24;12.00;99.90
44190;DHT22;29856;52.144;5.430;2023-11-19T06:14:49;12.00;99.90
44190;DHT22;29856;52.144;5.430;2023-11-19T06:17:15;12.30;99.90
44190;DHT22;29856;52.144;5.430;2023-11-19T06:19:40;12.00;99.90
44190;DHT22;29856;52.144;5.430;2023-11-19T06:22:06;12.10;99.90
44190;DHT22;29856;52.144;5.430;2023-11-19T06:24:31;12.00;99.90
44190;DHT22;29856;52.144;5.430;2023-11-19T06:26:56;12.00;99.90
44190;DHT22;29856;52.144;5.430;2023-11-19T06:29:22;12.00;99.90
44190;DHT22;29856;52.144;5.430;2023-11-19T06:31:47;12.10;99.90
44190;DHT22;29856;52.144;5.430;2023-11-19T06:34:13;12.00;99.90
44190;DHT22;29856;52.144;5.430;2023-11-19T06:36:38;12.00;99.90
44190;DHT22;29856;52.144;5.430;2023-11-19T06:39:04;12.00;99.90
44190;DHT22;29856;52.144;5.430;2023-11-19T06:41:30;12.00;99.90
44190;DHT22;29856;52.144;5.430;2023-11-19T06:43:55;12.00;99.90
44190;DHT22;29856;52.144;5.430;2023-11-19T06:46:20;12.00;99.90
44190;DHT22;29856;52.144;5.430;2023-11-19T06:48:46;11.90;99.90
44190;DHT22;29856;52.144;5.430;2023-11-19T06:51:12;11.90;99.90
44190;DHT22;29856;52.144;5.430;2023-11-19T06:53:38;11.90;99.90
44190;DHT22;29856;52.144;5.430;2023-11-19T06:56:03;11.90;99.90
44190;DHT22;29856;52.144;5.430;2023-11-19T06:58:29;12.00;99.90
44190;DHT22;29856;52.144;5.430;2023-11-19T07:00:54;12.00;99.90
44190;DHT22;29856;52.144;5.430;2023-11-19T07:03:20;11.90;99.90
44190;DHT22;29856;52.144;5.430;2023-11-19T07:05:45;12.00;99.90
44190;DHT22;29856;52.144;5.430;2023-11-19T07:08:11;12.00;99.90
44190;DHT22;29856;52.144;5.430;2023-11-19T07:10:36;12.00;99.90
44190;DHT22;29856;52.144;5.430;2023-11-19T07:13:02;12.00;99.90
44190;DHT22;29856;52.144;5.430;2023-11-19T07:15:27;12.00;99.90
44190;DHT22;29856;52.144;5.430;2023-11-19T07:17:53;12.00;99.90
44190;DHT22;29856;52.144;5.430;2023-11-19T07:20:18;12.00;99.90
44190;DHT22;29856;52.144;5.430;2023-11-19T07:22:44;12.00;99.90
44190;DHT22;29856;52.144;5.430;2023-11-19T07:25:09;11.90;99.90
44190;DHT22;29856;52.144;5.430;2023-11-19T07:27:35;11.90;99.90
44190;DHT22;29856;52.144;5.430;2023-11-19T07:30:00;12.00;99.90
44190;DHT22;29856;52.144;5.430;2023-11-19T07:32:25;12.00;99.90
44190;DHT22;29856;52.144;5.430;2023-11-19T07:34:51;12.00;99.90
44190;DHT22;29856;52.144;5.430;2023-11-19T07:37:16;12.00;99.90
44190;DHT22;29856;52.144;5.430;2023-11-19T07:39:42;12.10;99.90
44190;DHT22;29856;52.144;5.430;2023-11-19T07:42:07;12.00;99.90
44190;DHT22;29856;52.144;5.430;2023-11-19T07:44:33;12.00;99.90
44190;DHT22;29856;52.144;5.430;2023-11-19T07:46:58;12.00;99.90
44190;DHT22;29856;52.144;5.430;2023-11-19T07:49:24;12.00;99.90
44190;DHT22;29856;52.144;5.430;2023-11-19T07:51:49;12.00;99.90
44190;DHT22;29856;52.144;5.430;2023-11-19T07:54:15;12.10;99.90
44190;DHT22;29856;52.144;5.430;2023-11-19T07:56:40;12.10;99.90
44190;DHT22;29856;52.144;5.430;2023-11-19T07:59:05;12.00;99.90
44190;DHT22;29856;52.144;5.430;2023-11-19T08:01:31;12.10;99.90
44190;DHT22;29856;52.144;5.430;2023-11-19T08:03:56;12.10;99.90
44190;DHT22;29856;52.144;5.430;2023-11-19T08:06:22;12.30;99.90
44190;DHT22;29856;52.144;5.430;2023-11-19T08:08:47;12.10;99.90
44190;DHT22;29856;52.144;5.430;2023-11-19T08:11:13;12.10;99.90
44190;DHT22;29856;52.144;5.430;2023-11-19T08:13:39;12.10;99.90
44190;DHT22;29856;52.144;5.430;2023-11-19T08:16:04;12.10;99.90
44190;DHT22;29856;52.144;5.430;2023-11-19T08:18:30;12.10;99.90
44190;DHT22;29856;52.144;5.430;2023-11-19T08:20:55;12.20;99.90
44190;DHT22;29856;52.144;5.430;2023-11-19T08:23:21;12.20;99.90
44190;DHT22;29856;52.144;5.430;2023-11-19T08:25:46;12.20;99.90
44190;DHT22;29856;52.144;5.430;2023-11-19T08:28:12;12.20;99.90
44190;DHT22;29856;52.144;5.430;2023-11-19T08:30:37;12.20;99.90
44190;DHT22;29856;52.144;5.430;2023-11-19T08:33:03;12.20;99.90
44190;DHT22;29856;52.144;5.430;2023-11-19T08:35:32;12.20;99.90
44190;DHT22;29856;52.144;5.430;2023-11-19T08:37:57;12.20;99.90
44190;DHT22;29856;52.144;5.430;2023-11-19T08:40:23;12.30;99.90
44190;DHT22;29856;52.144;5.430;2023-11-19T08:42:48;12.30;99.90
44190;DHT22;29856;52.144;5.430;2023-11-19T08:45:14;12.30;99.90
44190;DHT22;29856;52.144;5.430;2023-11-19T08:47:39;12.30;99.90
44190;DHT22;29856;52.144;5.430;2023-11-19T08:50:05;12.30;99.90
44190;DHT22;29856;52.144;5.430;2023-11-19T08:52:31;12.30;99.90
44190;DHT22;29856;52.144;5.430;2023-11-19T08:54:56;12.40;99.90
44190;DHT22;29856;52.144;5.430;2023-11-19T08:57:22;12.40;99.90
44190;DHT22;29856;52.144;5.430;2023-11-19T08:59:47;12.40;99.90
44190;DHT22;29856;52.144;5.430;2023-11-19T09:02:13;12.50;99.90
44190;DHT22;29856;52.144;5.430;2023-11-19T09:04:38;12.50;99.90
44190;DHT22;29856;52.144;5.430;2023-11-19T09:07:04;12.50;99.90
44190;DHT22;29856;52.144;5.430;2023-11-19T09:09:29;12.60;99.90
44190;DHT22;29856;52.144;5.430;2023-11-19T09:11:55;12.60;99.90
44190;DHT22;29856;52.144;5.430;2023-11-19T09:14:20;12.60;99.90
44190;DHT22;29856;52.144;5.430;2023-11-19T09:16:46;12.70;99.90
44190;DHT22;29856;52.144;5.430;2023-11-19T09:19:11;12.70;99.90
44190;DHT22;29856;52.144;5.430;2023-11-19T09:21:37;12.80;99.90
44190;DHT22;29856;52.144;5.430;2023-11-19T09:24:02;12.80;99.90
44190;DHT22;29856;52.144;5.430;2023-11-19T09:26:28;12.80;99.90
44190;DHT22;29856;52.144;5.430;2023-11-19T09:28:54;12.80;99.90
44190;DHT22;29856;52.144;5.430;2023-11-19T09:31:19;12.80;99.90
44190;DHT22;29856;52.144;5.430;2023-11-19T09:33:45;12.80;99.90
44190;DHT22;29856;52.144;5.430;2023-11-19T09:36:12;12.90;99.90
44190;DHT22;29856;52.144;5.430;2023-11-19T09:38:38;12.90;99.90
44190;DHT22;29856;52.144;5.430;2023-11-19T09:41:06;12.90;99.90
44190;DHT22;29856;52.144;5.430;2023-11-19T09:43:31;12.90;99.90
44190;DHT22;29856;52.144;5.430;2023-11-19T09:45:58;12.90;99.90
44190;DHT22;29856;52.144;5.430;2023-11-19T09:48:25;13.00;99.90
44190;DHT22;29856;52.144;5.430;2023-11-19T09:50:51;13.00;99.90
44190;DHT22;29856;52.144;5.430;2023-11-19T09:53:18;13.00;99.90
44190;DHT22;29856;52.144;5.430;2023-11-19T09:55:43;13.00;99.90
44190;DHT22;29856;52.144;5.430;2023-11-19T09:58:12;13.00;99.90
44190;DHT22;29856;52.144;5.430;2023-11-19T10:00:39;13.10;99.90
44190;DHT22;29856;52.144;5.430;2023-11-19T10:03:07;13.10;99.90
44190;DHT22;29856;52.144;5.430;2023-11-19T10:05:34;13.10;99.90
44190;DHT22;29856;52.144;5.430;2023-11-19T10:08:01;13.20;99.90
44190;DHT22;29856;52.144;5.430;2023-11-19T10:10:27;13.20;99.90
44190;DHT22;29856;52.144;5.430;2023-11-19T10:12:52;13.20;99.90
44190;DHT22;29856;52.144;5.430;2023-11-19T10:15:21;13.20;99.90
44190;DHT22;29856;52.144;5.430;2023-11-19T10:17:47;13.20;99.90
44190;DHT22;29856;52.144;5.430;2023-11-19T10:20:13;13.30;99.90
44190;DHT22;29856;52.144;5.430;2023-11-19T10:22:39;13.40;99.90
44190;DHT22;29856;52.144;5.430;2023-11-19T10:25:08;13.40;99.90
44190;DHT22;29856;52.144;5.430;2023-11-19T10:27:46;13.50;99.90
44190;DHT22;29856;52.144;5.430;2023-11-19T10:30:12;13.60;99.90
44190;DHT22;29856;52.144;5.430;2023-11-19T10:32:37;13.60;99.90
44190;DHT22;29856;52.144;5.430;2023-11-19T10:35:06;13.70;99.90
44190;DHT22;29856;52.144;5.430;2023-11-19T10:37:32;13.80;99.90
44190;DHT22;29856;52.144;5.430;2023-11-19T10:39:57;13.90;99.90
44190;DHT22;29856;52.144;5.430;2023-11-19T10:42:23;14.00;99.90
44190;DHT22;29856;52.144;5.430;2023-11-19T10:44:48;14.00;99.90
44190;DHT22;29856;52.144;5.430;2023-11-19T10:47:14;14.00;99.90
44190;DHT22;29856;52.144;5.430;2023-11-19T10:49:39;14.00;99.90
44190;DHT22;29856;52.144;5.430;2023-11-19T10:52:07;14.10;99.90
44190;DHT22;29856;52.144;5.430;2023-11-19T10:54:34;14.20;99.90
44190;DHT22;29856;52.144;5.430;2023-11-19T10:57:01;14.30;99.90
44190;DHT22;29856;52.144;5.430;2023-11-19T10:59:29;14.40;99.90
44190;DHT22;29856;52.144;5.430;2023-11-19T11:01:56;14.50;99.90
44190;DHT22;29856;52.144;5.430;2023-11-19T11:04:25;14.50;99.90
44190;DHT22;29856;52.144;5.430;2023-11-19T11:06:51;14.50;99.90
44190;DHT22;29856;52.144;5.430;2023-11-19T11:09:19;14.60;99.90
44190;DHT22;29856;52.144;5.430;2023-11-19T11:11:47;14.50;99.90
44190;DHT22;29856;52.144;5.430;2023-11-19T11:14:13;14.60;99.90
44190;DHT22;29856;52.144;5.430;2023-11-19T11:16:42;14.60;99.90
44190;DHT22;29856;52.144;5.430;2023-11-19T11:19:09;14.50;99.90
44190;DHT22;29856;52.144;5.430;2023-11-19T11:21:36;14.50;99.90
44190;DHT22;29856;52.144;5.430;2023-11-19T11:29:24;14.50;99.90
44190;DHT22;29856;52.144;5.430;2023-11-19T11:39:39;14.50;99.90
44190;DHT22;29856;52.144;5.430;2023-11-19T11:45:02;14.50;99.90
44190;DHT22;29856;52.144;5.430;2023-11-19T11:50:10;14.50;99.90
44190;DHT22;29856;52.144;5.430;2023-11-19T11:58:18;14.50;99.90
44190;DHT22;29856;52.144;5.430;2023-11-19T12:00:47;14.50;99.90
44190;DHT22;29856;52.144;5.430;2023-11-19T12:03:13;14.40;99.90
44190;DHT22;29856;52.144;5.430;2023-11-19T12:05:41;14.50;99.90
44190;DHT22;29856;52.144;5.430;2023-11-19T12:08:07;14.40;99.90
44190;DHT22;29856;52.144;5.430;2023-11-19T12:10:38;14.40;99.90
44190;DHT22;29856;52.144;5.430;2023-11-19T12:13:10;14.40;99.90
44190;DHT22;29856;52.144;5.430;2023-11-19T12:18:26;14.50;99.90
44190;DHT22;29856;52.144;5.430;2023-11-19T12:20:52;14.40;99.90
44190;DHT22;29856;52.144;5.430;2023-11-19T12:23:18;14.40;99.90
44190;DHT22;29856;52.144;5.430;2023-11-19T12:25:43;14.50;99.90
44190;DHT22;29856;52.144;5.430;2023-11-19T12:28:12;14.60;99.90
44190;DHT22;29856;52.144;5.430;2023-11-19T12:30:38;14.40;99.90
44190;DHT22;29856;52.144;5.430;2023-11-19T12:33:08;14.50;99.90
44190;DHT22;29856;52.144;5.430;2023-11-19T12:35:47;14.50;99.90
44190;DHT22;29856;52.144;5.430;2023-11-19T12:38:22;14.40;99.90
44190;DHT22;29856;52.144;5.430;2023-11-19T12:41:02;14.40;99.90
44190;DHT22;29856;52.144;5.430;2023-11-19T12:43:28;14.40;99.90
44190;DHT22;29856;52.144;5.430;2023-11-19T12:45:53;14.40;99.90
44190;DHT22;29856;52.144;5.430;2023-11-19T12:48:19;14.30;99.90
44190;DHT22;29856;52.144;5.430;2023-11-19T12:50:54;14.40;99.90
44190;DHT22;29856;52.144;5.430;2023-11-19T12:53:21;14.30;99.90
44190;DHT22;29856;52.144;5.430;2023-11-19T12:55:46;14.20;99.90
44190;DHT22;29856;52.144;5.430;2023-11-19T12:58:37;14.30;99.90
44190;DHT22;29856;52.144;5.430;2023-11-19T13:01:04;14.10;99.90
44190;DHT22;29856;52.144;5.430;2023-11-19T13:03:31;14.10;99.90
44190;DHT22;29856;52.144;5.430;2023-11-19T13:06:07;14.20;99.90
44190;DHT22;29856;52.144;5.430;2023-11-19T13:11:02;14.10;99.90
44190;DHT22;29856;52.144;5.430;2023-11-19T13:13:28;14.20;99.90
44190;DHT22;29856;52.144;5.430;2023-11-19T13:16:01;14.20;99.90
44190;DHT22;29856;52.144;5.430;2023-11-19T13:18:26;14.20;99.90
44190;DHT22;29856;52.144;5.430;2023-11-19T13:20:51;14.20;99.90
44190;DHT22;29856;52.144;5.430;2023-11-19T13:23:17;14.10;99.90
44190;DHT22;29856;52.144;5.430;2023-11-19T13:25:42;14.10;99.90
44190;DHT22;29856;52.144;5.430;2023-11-19T13:28:08;14.10;99.90
44190;DHT22;29856;52.144;5.430;2023-11-19T13:30:33;14.00;99.90
44190;DHT22;29856;52.144;5.430;2023-11-19T13:32:59;14.10;99.90
44190;DHT22;29856;52.144;5.430;2023-11-19T13:35:24;14.00;99.90
44190;DHT22;29856;52.144;5.430;2023-11-19T13:37:50;14.00;99.90
44190;DHT22;29856;52.144;5.430;2023-11-19T13:40:15;14.00;99.90
44190;DHT22;29856;52.144;5.430;2023-11-19T13:42:44;14.00;99.90
44190;DHT22;29856;52.144;5.430;2023-11-19T13:45:11;14.10;99.90
44190;DHT22;29856;52.144;5.430;2023-11-19T13:47:36;14.10;99.90
44190;DHT22;29856;52.144;5.430;2023-11-19T13:50:02;14.00;99.90
44190;DHT22;29856;52.144;5.430;2023-11-19T13:52:27;14.10;99.90
44190;DHT22;29856;52.144;5.430;2023-11-19T13:54:53;14.10;99.90
44190;DHT22;29856;52.144;5.430;2023-11-19T13:57:18;14.00;99.90
44190;DHT22;29856;52.144;5.430;2023-11-19T13:59:44;14.00;99.90
44190;DHT22;29856;52.144;5.430;2023-11-19T14:02:09;14.10;99.90
44190;DHT22;29856;52.144;5.430;2023-11-19T14:04:35;14.00;99.90
44190;DHT22;29856;52.144;5.430;2023-11-19T14:07:00;14.00;99.90
44190;DHT22;29856;52.144;5.430;2023-11-19T14:09:26;13.80;99.90
44190;DHT22;29856;52.144;5.430;2023-11-19T14:11:51;13.90;99.90
44190;DHT22;29856;52.144;5.430;2023-11-19T14:14:17;13.90;99.90
44190;DHT22;29856;52.144;5.430;2023-11-19T14:16:42;13.90;99.90
44190;DHT22;29856;52.144;5.430;2023-11-19T14:19:08;13.90;99.90
44190;DHT22;29856;52.144;5.430;2023-11-19T14:21:33;13.90;99.90
44190;DHT22;29856;52.144;5.430;2023-11-19T14:23:59;13.90;99.90
44190;DHT22;29856;52.144;5.430;2023-11-19T14:26:24;13.80;99.90
44190;DHT22;29856;52.144;5.430;2023-11-19T14:28:50;13.90;99.90
44190;DHT22;29856;52.144;5.430;2023-11-19T14:31:15;13.70;99.90
44190;DHT22;29856;52.144;5.430;2023-11-19T14:33:41;13.70;99.90
44190;DHT22;29856;52.144;5.430;2023-11-19T14:36:06;13.70;99.90
44190;DHT22;29856;52.144;5.430;2023-11-19T14:38:32;13.60;99.90
44190;DHT22;29856;52.144;5.430;2023-11-19T14:40:58;13.60;99.90
44190;DHT22;29856;52.144;5.430;2023-11-19T14:43:23;13.60;99.90
44190;DHT22;29856;52.144;5.430;2023-11-19T14:45:49;13.60;99.90
44190;DHT22;29856;52.144;5.430;2023-11-19T14:48:14;13.70;99.90
44190;DHT22;29856;52.144;5.430;2023-11-19T14:50:43;13.60;99.90
44190;DHT22;29856;52.144;5.430;2023-11-19T14:53:09;13.60;99.90
44190;DHT22;29856;52.144;5.430;2023-11-19T14:55:37;13.50;99.90
44190;DHT22;29856;52.144;5.430;2023-11-19T14:58:02;13.60;99.90
44190;DHT22;29856;52.144;5.430;2023-11-19T15:00:28;13.50;99.90
44190;DHT22;29856;52.144;5.430;2023-11-19T15:02:56;13.50;99.90
44190;DHT22;29856;52.144;5.430;2023-11-19T15:05:22;13.40;99.90
44190;DHT22;29856;52.144;5.430;2023-11-19T15:07:47;13.50;99.90
44190;DHT22;29856;52.144;5.430;2023-11-19T15:10:13;13.50;99.90
44190;DHT22;29856;52.144;5.430;2023-11-19T15:12:39;13.50;99.90
44190;DHT22;29856;52.144;5.430;2023-11-19T15:15:08;13.50;99.90
44190;DHT22;29856;52.144;5.430;2023-11-19T15:17:34;13.50;99.90
44190;DHT22;29856;52.144;5.430;2023-11-19T15:19:59;13.40;99.90
44190;DHT22;29856;52.144;5.430;2023-11-19T15:22:25;13.50;99.90
44190;DHT22;29856;52.144;5.430;2023-11-19T15:24:50;13.50;99.90
44190;DHT22;29856;52.144;5.430;2023-11-19T15:27:16;13.50;99.90
44190;DHT22;29856;52.144;5.430;2023-11-19T15:29:41;13.50;99.90
44190;DHT22;29856;52.144;5.430;2023-11-19T15:32:06;13.50;99.90
44190;DHT22;29856;52.144;5.430;2023-11-19T15:34:32;13.50;99.90
44190;DHT22;29856;52.144;5.430;2023-11-19T15:36:58;13.50;99.90
44190;DHT22;29856;52.144;5.430;2023-11-19T15:39:23;13.50;99.90
44190;DHT22;29856;52.144;5.430;2023-11-19T15:41:48;13.50;99.90
44190;DHT22;29856;52.144;5.430;2023-11-19T15:44:14;13.40;99.90
44190;DHT22;29856;52.144;5.430;2023-11-19T15:46:42;13.40;99.90
44190;DHT22;29856;52.144;5.430;2023-11-19T15:49:08;13.50;99.90
44190;DHT22;29856;52.144;5.430;2023-11-19T15:51:33;13.50;99.90